Pays
Station

 

Conditions  météo  pour  St. Petersburg/Clearwater, St. Petersburg/Clearwater International Airport  -  Etats-Unis    Etats-Unis

  
10 °C
    
 
 

METAR pour St. Petersburg/Clearwater, St. Petersburg/Clearwater International Airport :

KPIE 140553Z AUTO 17005KT 10SM FEW036 10/09 A3004 RMK AO2 SLP173 T01000089 10106 20078 58011

 

Voici le bulletin pour St. Petersburg/Clearwater, St. Petersburg/Clearwater International Airport - Etats-Unis.
 
Le bulletin a été fait il y a 16 minutes, à 05:53 UTC .
Le vent soufflait à la vitesse de 2.6 mètres par seconde de Sud (170°).
 
La température était de 10 °C, avec un point de rosée à 9 °C.
La pression atmosphérique était de 1017 hPa.
L'humidité relative était de 93.5%.
 
Il y avait 1 à 2/8ème de nébulosité à une hauteur de 1097 mètres.
 
La visibilité globale était de 16.1 kilomètres.
 

 
 
 

Pays :   A   B   C   D   E   F   G   H   I   J   K   L   M   N   O   P   Q   R   S   T   U   V   W   Y   Z

 

Partenaires :  Info Météo avec Met'info
Météo Marine avec MeteoMarine.net
Infos Site  |  Infos Légales  |  Crédits  |  Confidentialité
Contactez-nous  |  Ajouter aux favoris
© 2013-2017 METAR - Tous droits réservés